Time;durP1;ratioP1;P1;durP2;ratioP2;P2;SDS_P1;SDS_P2;PMS_P1;PMS_P2;Temp;Humidity;BMP_temperature;BMP_pressure;BME280_temperature;BME280_humidity;BME280_pressure;Samples;Min_cycle;Max_cycle;Signal;HPM_P1;HPM_P2
2023/01/07 00:01:36;;;;;;;0.20;0.10;;;;;;;;;;5058779;28;20105;-88
2023/01/07 00:04:03;;;;;;;0.63;0.20;;;;;;;;;;5057966;28;20124;-85
2023/01/07 00:06:34;;;;;;;0.20;0.10;;;;;;;;;;5053159;28;20223;-89
2023/01/07 00:09:01;;;;;;;0.20;0.10;;;;;;;;;;5035781;28;20044;-86
2023/01/07 00:11:32;;;;;;;0.20;0.10;;;;;;;;;;5068999;28;20040;-88
2023/01/07 00:13:58;;;;;;;0.20;0.10;;;;;;;;;;5039398;28;20028;-85
2023/01/07 00:16:26;;;;;;;0.20;0.10;;;;;;;;;;5072345;22;20058;-81
2023/01/07 00:18:52;;;;;;;0.20;0.10;;;;;;;;;;5068761;28;20073;-83
2023/01/07 00:21:19;;;;;;;0.20;0.10;;;;;;;;;;5087524;28;20121;-84
2023/01/07 00:23:46;;;;;;;0.20;0.10;;;;;;;;;;5085728;28;20039;-83
2023/01/07 00:26:16;;;;;;;0.20;0.10;;;;;;;;;;5086776;28;20122;-82
2023/01/07 00:28:43;;;;;;;0.20;0.10;;;;;;;;;;5079329;28;20493;-83
2023/01/07 00:31:20;;;;;;;0.20;0.10;;;;;;;;;;5121695;28;20321;-84
2023/01/07 00:33:50;;;;;;;0.32;0.20;;;;;;;;;;5080610;28;20039;-82
2023/01/07 00:36:17;;;;;;;0.30;0.20;;;;;;;;;;5117530;28;20398;-83
2023/01/07 00:38:43;;;;;;;0.20;0.10;;;;;;;;;;5083319;28;20065;-86
2023/01/07 00:41:09;;;;;;;0.20;0.10;;;;;;;;;;5100561;28;20031;-83
2023/01/07 00:43:35;;;;;;;0.20;0.10;;;;;;;;;;5087478;28;20092;-85
2023/01/07 00:46:01;;;;;;;0.20;0.20;;;;;;;;;;5092390;28;20528;-85
2023/01/07 00:48:27;;;;;;;0.30;0.20;;;;;;;;;;5105871;28;20038;-84
2023/01/07 00:50:54;;;;;;;0.20;0.10;;;;;;;;;;5103432;28;20035;-82
2023/01/07 00:53:20;;;;;;;0.30;0.25;;;;;;;;;;5104890;28;20108;-84
2023/01/07 00:55:47;;;;;;;0.20;0.20;;;;;;;;;;5103486;28;20510;-86
2023/01/07 00:58:14;;;;;;;0.20;0.10;;;;;;;;;;5089876;27;20032;-83
2023/01/07 01:00:41;;;;;;;0.20;0.10;;;;;;;;;;5105656;27;20088;-83
2023/01/07 01:03:07;;;;;;;0.55;0.40;;;;;;;;;;5109526;27;20239;-85
2023/01/07 01:05:33;;;;;;;0.20;0.10;;;;;;;;;;5092887;27;20038;-83
2023/01/07 01:07:59;;;;;;;0.30;0.30;;;;;;;;;;5091551;27;20050;-84
2023/01/07 01:10:26;;;;;;;0.20;0.13;;;;;;;;;;5105735;27;20110;-88
2023/01/07 01:12:52;;;;;;;0.20;0.10;;;;;;;;;;5124590;27;20065;-84
2023/01/07 01:15:19;;;;;;;0.20;0.10;;;;;;;;;;5106856;27;20042;-82
2023/01/07 01:17:45;;;;;;;0.22;0.22;;;;;;;;;;5087446;27;20039;-83
2023/01/07 01:20:12;;;;;;;0.25;0.15;;;;;;;;;;5093228;27;20112;-85
2023/01/07 01:22:38;;;;;;;1.15;0.57;;;;;;;;;;5103066;27;20043;-84
2023/01/07 01:25:05;;;;;;;0.20;0.10;;;;;;;;;;5069888;27;20513;-84
2023/01/07 01:27:31;;;;;;;0.20;0.10;;;;;;;;;;5085573;27;20974;-83
2023/01/07 01:29:58;;;;;;;0.20;0.10;;;;;;;;;;5069658;27;20043;-82
2023/01/07 01:32:24;;;;;;;0.20;0.10;;;;;;;;;;5070576;27;20141;-84
2023/01/07 01:34:50;;;;;;;0.55;0.30;;;;;;;;;;5075042;27;20525;-84
2023/01/07 01:37:16;;;;;;;0.20;0.10;;;;;;;;;;5087254;27;20106;-85
2023/01/07 01:39:42;;;;;;;0.20;0.10;;;;;;;;;;5071807;27;20097;-83
2023/01/07 01:42:16;;;;;;;0.20;0.10;;;;;;;;;;5082041;27;20039;-83
2023/01/07 01:44:45;;;;;;;0.20;0.10;;;;;;;;;;5089379;27;20058;-84
2023/01/07 01:47:14;;;;;;;0.20;0.10;;;;;;;;;;5074987;27;20270;-84
2023/01/07 01:49:43;;;;;;;0.20;0.10;;;;;;;;;;5094844;27;20401;-84
2023/01/07 01:52:11;;;;;;;0.20;0.10;;;;;;;;;;5105903;27;20035;-81
2023/01/07 01:54:38;;;;;;;0.20;0.10;;;;;;;;;;5097866;27;20039;-83
2023/01/07 01:57:06;;;;;;;0.20;0.10;;;;;;;;;;5082782;27;20043;-82
2023/01/07 01:59:34;;;;;;;0.20;0.10;;;;;;;;;;5101631;27;20034;-84
2023/01/07 02:02:00;;;;;;;0.20;0.10;;;;;;;;;;5101611;27;20038;-82
2023/01/07 02:04:27;;;;;;;0.20;0.10;;;;;;;;;;5087853;27;20035;-84
2023/01/07 02:06:59;;;;;;;0.20;0.10;;;;;;;;;;5109882;27;20046;-84
2023/01/07 02:09:25;;;;;;;0.20;0.10;;;;;;;;;;5089451;27;20892;-84
2023/01/07 02:11:57;;;;;;;0.20;0.10;;;;;;;;;;5105505;27;20047;-82
2023/01/07 02:14:42;;;;;;;0.20;0.10;;;;;;;;;;5095308;27;20035;-83
2023/01/07 02:17:28;;;;;;;0.20;0.10;;;;;;;;;;5106253;27;20512;-86
2023/01/07 02:19:54;;;;;;;0.20;0.10;;;;;;;;;;5086650;27;20044;-83
2023/01/07 02:22:39;;;;;;;0.65;0.65;;;;;;;;;;5105823;27;20466;-83
2023/01/07 02:25:16;;;;;;;0.40;0.22;;;;;;;;;;5101261;27;20051;-87
2023/01/07 02:28:10;;;;;;;0.40;0.40;;;;;;;;;;5105513;27;20039;-83
2023/01/07 02:30:36;;;;;;;0.20;0.10;;;;;;;;;;5065770;27;20092;-84
2023/01/07 02:33:08;;;;;;;0.30;0.20;;;;;;;;;;5087152;27;20459;-82
2023/01/07 02:35:43;;;;;;;0.75;0.28;;;;;;;;;;5107179;27;20546;-84
2023/01/07 02:38:21;;;;;;;0.22;0.15;;;;;;;;;;5124740;27;20030;-83
2023/01/07 02:40:55;;;;;;;0.52;0.17;;;;;;;;;;5099937;27;20034;-84
2023/01/07 02:43:21;;;;;;;0.20;0.13;;;;;;;;;;5082884;27;20132;-83
2023/01/07 02:45:47;;;;;;;0.20;0.10;;;;;;;;;;5109681;27;20039;-84
2023/01/07 02:48:14;;;;;;;0.20;0.10;;;;;;;;;;5093079;27;20027;-86
2023/01/07 02:50:40;;;;;;;0.20;0.10;;;;;;;;;;5124082;27;20485;-85
2023/01/07 02:53:08;;;;;;;0.25;0.17;;;;;;;;;;5102446;27;20039;-83
2023/01/07 02:55:40;;;;;;;0.30;0.20;;;;;;;;;;5088825;27;20042;-83
2023/01/07 02:58:18;;;;;;;1.55;0.20;;;;;;;;;;5107895;27;20039;-82
2023/01/07 03:01:08;;;;;;;0.70;0.30;;;;;;;;;;5106388;27;20034;-82
2023/01/07 03:03:41;;;;;;;0.30;0.30;;;;;;;;;;5081168;27;20289;-82
2023/01/07 03:06:33;;;;;;;0.20;0.20;;;;;;;;;;5087495;27;20116;-83
2023/01/07 03:09:06;;;;;;;0.45;0.30;;;;;;;;;;5105020;27;20041;-84
2023/01/07 03:11:38;;;;;;;0.20;0.13;;;;;;;;;;5104710;27;20753;-83
2023/01/07 03:14:19;;;;;;;0.20;0.20;;;;;;;;;;5107343;27;20039;-83
2023/01/07 03:16:49;;;;;;;0.20;0.10;;;;;;;;;;5102869;27;20074;-83
2023/01/07 03:19:22;;;;;;;0.20;0.13;;;;;;;;;;5121280;27;20066;-86
2023/01/07 03:21:49;;;;;;;0.57;0.20;;;;;;;;;;5101108;27;20397;-84
2023/01/07 03:24:16;;;;;;;0.20;0.10;;;;;;;;;;5125159;27;20050;-83
2023/01/07 03:26:43;;;;;;;0.20;0.10;;;;;;;;;;5106260;27;20046;-82
2023/01/07 03:29:11;;;;;;;0.40;0.30;;;;;;;;;;5085699;27;20039;-83
2023/01/07 03:31:41;;;;;;;0.25;0.20;;;;;;;;;;5090346;27;20034;-83
2023/01/07 03:34:08;;;;;;;0.20;0.10;;;;;;;;;;5108512;27;20035;-85
2023/01/07 03:36:42;;;;;;;0.20;0.10;;;;;;;;;;5083324;27;20072;-84
2023/01/07 03:39:10;;;;;;;0.20;0.10;;;;;;;;;;5088348;27;20035;-83
2023/01/07 03:44:22;;;;;;;0.20;0.20;;;;;;;;;;5108612;27;20047;-85
2023/01/07 03:46:48;;;;;;;0.20;0.10;;;;;;;;;;5106760;27;20045;-83
2023/01/07 03:49:14;;;;;;;2.08;0.35;;;;;;;;;;5109910;28;20104;-87
2023/01/07 03:51:40;;;;;;;0.20;0.10;;;;;;;;;;5102760;27;20166;-88
2023/01/07 03:54:06;;;;;;;0.20;0.10;;;;;;;;;;5090111;27;20073;-83
2023/01/07 03:56:32;;;;;;;0.40;0.20;;;;;;;;;;5103947;27;20043;-85
2023/01/07 03:58:58;;;;;;;0.20;0.10;;;;;;;;;;5104450;27;20046;-84
2023/01/07 04:01:26;;;;;;;0.25;0.20;;;;;;;;;;5104655;27;20042;-84
2023/01/07 04:03:52;;;;;;;0.25;0.25;;;;;;;;;;5105401;27;20051;-83
2023/01/07 04:06:18;;;;;;;0.20;0.10;;;;;;;;;;5106247;27;20039;-85
2023/01/07 04:08:44;;;;;;;0.20;0.20;;;;;;;;;;5090951;27;20049;-85
2023/01/07 04:11:10;;;;;;;0.20;0.10;;;;;;;;;;5089953;27;20409;-84
2023/01/07 04:13:36;;;;;;;0.20;0.20;;;;;;;;;;5090540;27;20489;-86
2023/01/07 04:16:02;;;;;;;0.20;0.10;;;;;;;;;;5089712;28;21423;-84
2023/01/07 04:18:28;;;;;;;0.20;0.10;;;;;;;;;;5090648;28;20027;-83
2023/01/07 04:20:54;;;;;;;0.20;0.10;;;;;;;;;;5106446;28;20413;-83
2023/01/07 04:23:20;;;;;;;0.20;0.20;;;;;;;;;;5086068;28;20046;-85
2023/01/07 04:25:47;;;;;;;0.20;0.20;;;;;;;;;;5102828;28;20038;-84
2023/01/07 04:28:13;;;;;;;0.20;0.10;;;;;;;;;;5104671;28;20048;-83
2023/01/07 04:30:39;;;;;;;0.20;0.20;;;;;;;;;;5105648;28;20117;-84
2023/01/07 04:33:05;;;;;;;0.20;0.10;;;;;;;;;;5108035;27;20188;-83
2023/01/07 04:35:31;;;;;;;0.28;0.10;;;;;;;;;;5102640;27;20046;-83
2023/01/07 04:37:58;;;;;;;0.20;0.10;;;;;;;;;;5086458;27;20042;-86
2023/01/07 04:40:24;;;;;;;0.20;0.13;;;;;;;;;;5085404;27;20771;-83
2023/01/07 04:42:50;;;;;;;0.20;0.10;;;;;;;;;;5106114;27;20035;-85
2023/01/07 04:45:16;;;;;;;0.20;0.10;;;;;;;;;;5106179;27;20043;-84
2023/01/07 04:47:42;;;;;;;0.20;0.13;;;;;;;;;;5124526;27;20409;-84
2023/01/07 04:50:08;;;;;;;0.20;0.10;;;;;;;;;;5105995;27;20043;-84
2023/01/07 04:52:34;;;;;;;0.20;0.10;;;;;;;;;;5102714;27;20672;-85
2023/01/07 04:55:00;;;;;;;0.75;0.75;;;;;;;;;;5090139;27;20027;-83
2023/01/07 04:57:26;;;;;;;0.28;0.28;;;;;;;;;;5090653;27;20175;-83
2023/01/07 04:59:52;;;;;;;0.47;0.30;;;;;;;;;;5108905;27;20027;-84
2023/01/07 05:02:18;;;;;;;0.20;0.10;;;;;;;;;;5110332;27;20035;-83
2023/01/07 05:04:44;;;;;;;0.47;0.20;;;;;;;;;;5107455;27;20964;-84
2023/01/07 05:07:10;;;;;;;0.20;0.10;;;;;;;;;;5106300;27;20038;-84
2023/01/07 05:09:36;;;;;;;0.45;0.20;;;;;;;;;;5092433;27;20039;-84
2023/01/07 05:12:02;;;;;;;0.20;0.10;;;;;;;;;;5087939;27;20046;-86
2023/01/07 05:14:28;;;;;;;0.20;0.10;;;;;;;;;;5089200;27;20038;-82
2023/01/07 05:16:54;;;;;;;0.20;0.10;;;;;;;;;;5083214;27;20035;-85
2023/01/07 05:19:20;;;;;;;0.20;0.10;;;;;;;;;;5098976;27;20031;-83
2023/01/07 05:21:46;;;;;;;0.20;0.10;;;;;;;;;;5108626;27;20036;-85
2023/01/07 05:24:12;;;;;;;0.20;0.10;;;;;;;;;;5113672;27;20093;-84
2023/01/07 05:26:39;;;;;;;0.35;0.35;;;;;;;;;;5106522;27;20417;-84
2023/01/07 05:29:05;;;;;;;0.20;0.10;;;;;;;;;;5106842;27;20053;-85
2023/01/07 05:31:31;;;;;;;1.15;0.80;;;;;;;;;;5110383;27;20085;-83
2023/01/07 05:33:57;;;;;;;0.65;0.38;;;;;;;;;;5094847;27;20065;-85
2023/01/07 05:36:23;;;;;;;0.20;0.10;;;;;;;;;;5087564;27;20450;-84
2023/01/07 05:38:49;;;;;;;0.20;0.10;;;;;;;;;;5107983;27;20054;-85
2023/01/07 05:41:15;;;;;;;0.20;0.10;;;;;;;;;;5098708;27;20077;-86
2023/01/07 05:43:41;;;;;;;0.20;0.10;;;;;;;;;;5091574;27;20406;-84
2023/01/07 05:46:07;;;;;;;0.60;0.30;;;;;;;;;;5086770;27;20038;-84
2023/01/07 05:48:33;;;;;;;0.20;0.10;;;;;;;;;;5081981;28;20050;-86
2023/01/07 05:50:59;;;;;;;0.20;0.10;;;;;;;;;;5127555;27;20118;-85
2023/01/07 05:53:25;;;;;;;0.20;0.10;;;;;;;;;;5121212;27;20035;-83
2023/01/07 05:55:58;;;;;;;0.20;0.10;;;;;;;;;;5109416;27;20054;-84
2023/01/07 05:58:24;;;;;;;0.20;0.10;;;;;;;;;;5093759;27;20043;-84
2023/01/07 06:00:50;;;;;;;0.20;0.10;;;;;;;;;;5100232;27;20041;-86
2023/01/07 06:03:16;;;;;;;0.20;0.10;;;;;;;;;;5084007;27;20042;-83
2023/01/07 06:05:42;;;;;;;0.20;0.10;;;;;;;;;;5087530;27;20030;-84
2023/01/07 06:08:08;;;;;;;0.82;0.73;;;;;;;;;;5084289;27;20125;-84
2023/01/07 06:10:34;;;;;;;0.50;0.32;;;;;;;;;;5104387;27;20063;-85
2023/01/07 06:13:03;;;;;;;0.20;0.10;;;;;;;;;;5106793;27;20032;-83
2023/01/07 06:15:30;;;;;;;0.95;0.30;;;;;;;;;;5126504;22;20056;-87
2023/01/07 06:17:56;;;;;;;0.20;0.20;;;;;;;;;;5046142;28;20044;-86
2023/01/07 06:20:25;;;;;;;0.20;0.10;;;;;;;;;;5025635;28;20498;-86
2023/01/07 06:22:51;;;;;;;0.20;0.10;;;;;;;;;;5047753;28;20525;-85
2023/01/07 06:25:17;;;;;;;0.20;0.10;;;;;;;;;;5034372;28;20040;-87
2023/01/07 06:27:43;;;;;;;0.20;0.10;;;;;;;;;;5026327;28;20130;-89
2023/01/07 06:30:17;;;;;;;0.20;0.10;;;;;;;;;;5037729;28;21488;-86
2023/01/07 06:32:43;;;;;;;0.30;0.30;;;;;;;;;;5036561;28;20044;-88
2023/01/07 06:35:12;;;;;;;0.20;0.17;;;;;;;;;;5028031;28;20037;-89
2023/01/07 06:37:38;;;;;;;0.20;0.10;;;;;;;;;;5048380;28;20037;-85
2023/01/07 06:40:07;;;;;;;19.80;1.20;;;;;;;;;;5052803;28;20091;-86
2023/01/07 06:42:36;;;;;;;0.20;0.10;;;;;;;;;;5033321;28;20040;-89
2023/01/07 06:45:02;;;;;;;0.20;0.15;;;;;;;;;;5035068;28;20386;-87
2023/01/07 06:47:37;;;;;;;0.30;0.25;;;;;;;;;;5041223;28;20567;-87
2023/01/07 06:50:19;;;;;;;0.20;0.10;;;;;;;;;;5036617;28;20435;-88
2023/01/07 06:52:45;;;;;;;0.20;0.20;;;;;;;;;;5048472;28;20040;-88
2023/01/07 06:55:16;;;;;;;0.20;0.10;;;;;;;;;;5032582;28;20491;-87
2023/01/07 06:57:48;;;;;;;0.20;0.10;;;;;;;;;;5038849;28;20602;-88
2023/01/07 07:00:15;;;;;;;0.20;0.15;;;;;;;;;;5036445;28;20067;-87
2023/01/07 07:02:41;;;;;;;0.20;0.10;;;;;;;;;;5030442;28;20036;-87
2023/01/07 07:05:10;;;;;;;0.20;0.10;;;;;;;;;;5035497;28;20479;-88
2023/01/07 07:07:36;;;;;;;0.20;0.15;;;;;;;;;;5051343;28;20056;-86
2023/01/07 07:10:06;;;;;;;0.20;0.10;;;;;;;;;;5069539;28;20036;-88
2023/01/07 07:12:32;;;;;;;0.20;0.10;;;;;;;;;;5027186;28;20055;-88
2023/01/07 07:14:58;;;;;;;0.20;0.10;;;;;;;;;;5024571;28;20107;-86
2023/01/07 07:17:24;;;;;;;0.20;0.10;;;;;;;;;;5034299;28;20032;-88
2023/01/07 07:19:50;;;;;;;0.20;0.10;;;;;;;;;;5037838;28;20040;-87
2023/01/07 07:22:16;;;;;;;0.20;0.20;;;;;;;;;;5031749;28;20036;-86
2023/01/07 07:24:49;;;;;;;0.20;0.10;;;;;;;;;;5027672;28;20036;-85
2023/01/07 07:27:21;;;;;;;0.20;0.10;;;;;;;;;;5023791;28;20143;-86
2023/01/07 07:29:47;;;;;;;0.20;0.10;;;;;;;;;;5022653;28;20046;-85
2023/01/07 07:32:27;;;;;;;0.20;0.10;;;;;;;;;;5026229;28;20115;-86
2023/01/07 07:34:54;;;;;;;0.20;0.20;;;;;;;;;;5016947;28;20068;-84
2023/01/07 07:37:20;;;;;;;0.20;0.10;;;;;;;;;;5035654;28;20040;-83
2023/01/07 07:39:46;;;;;;;0.20;0.10;;;;;;;;;;5013547;28;20119;-84
2023/01/07 07:42:12;;;;;;;0.20;0.10;;;;;;;;;;5040588;28;20036;-87
2023/01/07 07:44:38;;;;;;;0.20;0.10;;;;;;;;;;5021607;28;20044;-85
2023/01/07 07:47:04;;;;;;;0.20;0.10;;;;;;;;;;5024604;28;20028;-86
2023/01/07 07:49:33;;;;;;;0.20;0.20;;;;;;;;;;5029449;28;20048;-85
2023/01/07 07:52:05;;;;;;;0.20;0.10;;;;;;;;;;5016434;28;20047;-87
2023/01/07 07:54:31;;;;;;;0.20;0.10;;;;;;;;;;5054306;28;20080;-85
2023/01/07 07:57:05;;;;;;;0.20;0.10;;;;;;;;;;5023959;28;20065;-87
2023/01/07 07:59:31;;;;;;;0.20;0.10;;;;;;;;;;5014161;28;20542;-85
2023/01/07 08:01:57;;;;;;;0.20;0.10;;;;;;;;;;5043007;28;20063;-86
2023/01/07 08:04:23;;;;;;;0.20;0.10;;;;;;;;;;5043815;28;20144;-87
2023/01/07 08:06:49;;;;;;;0.73;0.65;;;;;;;;;;5026506;28;20040;-89
2023/01/07 08:09:15;;;;;;;0.20;0.10;;;;;;;;;;5028821;28;20091;-85
2023/01/07 08:11:41;;;;;;;0.63;0.50;;;;;;;;;;5026830;28;20032;-85
2023/01/07 08:14:09;;;;;;;0.20;0.15;;;;;;;;;;5037741;28;20036;-85
2023/01/07 08:16:35;;;;;;;0.20;0.10;;;;;;;;;;5056124;28;20467;-84
2023/01/07 08:19:01;;;;;;;0.20;0.10;;;;;;;;;;5034222;28;20136;-84
2023/01/07 08:21:27;;;;;;;0.20;0.10;;;;;;;;;;5039553;28;20119;-81
2023/01/07 08:23:53;;;;;;;0.20;0.10;;;;;;;;;;5040971;28;20124;-86
2023/01/07 08:26:19;;;;;;;0.20;0.10;;;;;;;;;;5033290;28;20500;-85
2023/01/07 08:28:45;;;;;;;0.20;0.10;;;;;;;;;;5020074;28;20039;-86
2023/01/07 08:31:11;;;;;;;0.20;0.10;;;;;;;;;;5018876;28;20048;-84
2023/01/07 08:33:38;;;;;;;0.20;0.10;;;;;;;;;;5028441;28;20043;-83
2023/01/07 08:36:05;;;;;;;0.32;0.28;;;;;;;;;;5066491;28;20094;-82
2023/01/07 08:38:31;;;;;;;0.20;0.10;;;;;;;;;;5045487;28;20116;-85
2023/01/07 08:40:58;;;;;;;0.20;0.10;;;;;;;;;;5047094;28;20468;-83
2023/01/07 08:43:24;;;;;;;0.20;0.10;;;;;;;;;;5042895;28;20548;-85
2023/01/07 08:45:54;;;;;;;0.20;0.10;;;;;;;;;;5060304;28;20109;-86
2023/01/07 08:48:27;;;;;;;0.20;0.10;;;;;;;;;;5039611;28;20044;-86
2023/01/07 08:50:56;;;;;;;0.20;0.10;;;;;;;;;;5038500;28;20116;-85
2023/01/07 08:53:23;;;;;;;0.20;0.10;;;;;;;;;;5046297;28;20032;-87
2023/01/07 08:55:49;;;;;;;0.20;0.10;;;;;;;;;;5059152;28;20048;-87
2023/01/07 08:58:15;;;;;;;0.20;0.10;;;;;;;;;;5024259;28;20040;-88
2023/01/07 09:00:41;;;;;;;0.20;0.10;;;;;;;;;;5038819;28;20064;-86
2023/01/07 09:03:08;;;;;;;0.20;0.10;;;;;;;;;;5042889;28;20041;-86
2023/01/07 09:05:34;;;;;;;0.20;0.10;;;;;;;;;;5040245;28;20106;-88
2023/01/07 09:08:01;;;;;;;0.20;0.10;;;;;;;;;;5031301;28;20044;-83
2023/01/07 09:10:28;;;;;;;0.20;0.10;;;;;;;;;;5037692;28;20439;-85
2023/01/07 09:12:57;;;;;;;0.20;0.10;;;;;;;;;;5044453;28;20028;-89
2023/01/07 09:15:23;;;;;;;0.20;0.10;;;;;;;;;;5021964;28;20047;-88
2023/01/07 09:17:54;;;;;;;0.20;0.10;;;;;;;;;;5021072;28;20115;-88
2023/01/07 09:20:20;;;;;;;0.20;0.10;;;;;;;;;;5012952;28;20036;-88
2023/01/07 09:22:46;;;;;;;0.20;0.10;;;;;;;;;;5043935;28;20047;-84
2023/01/07 09:25:13;;;;;;;0.20;0.10;;;;;;;;;;5040739;28;20433;-86
2023/01/07 09:27:39;;;;;;;0.20;0.10;;;;;;;;;;5041703;28;20097;-85
2023/01/07 09:30:06;;;;;;;0.20;0.10;;;;;;;;;;5037565;28;23418;-87
2023/01/07 09:32:35;;;;;;;0.20;0.10;;;;;;;;;;5042179;28;20028;-86
2023/01/07 09:35:05;;;;;;;0.20;0.10;;;;;;;;;;5029525;28;20260;-86
2023/01/07 09:37:34;;;;;;;0.20;0.08;;;;;;;;;;5015245;28;20040;-87
2023/01/07 09:40:00;;;;;;;0.20;0.10;;;;;;;;;;5037948;28;20040;-86
2023/01/07 09:42:33;;;;;;;0.30;0.20;;;;;;;;;;5028479;28;20076;-86
2023/01/07 09:45:13;;;;;;;0.20;0.10;;;;;;;;;;5015708;28;20071;-87
2023/01/07 09:47:42;;;;;;;0.20;0.10;;;;;;;;;;5043916;28;20123;-84
2023/01/07 09:50:16;;;;;;;0.20;0.10;;;;;;;;;;5025034;28;20040;-87
2023/01/07 09:52:45;;;;;;;0.20;0.10;;;;;;;;;;5062674;28;20041;-89
2023/01/07 09:55:23;;;;;;;0.20;0.10;;;;;;;;;;5026215;28;20110;-85
2023/01/07 09:57:55;;;;;;;0.20;0.10;;;;;;;;;;5045503;28;20470;-89
2023/01/07 10:00:22;;;;;;;0.20;0.10;;;;;;;;;;5049381;28;20483;-86
2023/01/07 10:02:55;;;;;;;0.20;0.10;;;;;;;;;;5027389;28;20094;-86
2023/01/07 10:05:36;;;;;;;0.20;0.10;;;;;;;;;;5066488;28;20106;-89
2023/01/07 10:08:17;;;;;;;0.20;0.10;;;;;;;;;;5042364;28;20037;-86
2023/01/07 10:10:52;;;;;;;0.20;0.10;;;;;;;;;;5013815;28;20055;-86
2023/01/07 10:13:21;;;;;;;0.20;0.20;;;;;;;;;;5025012;28;20490;-85
2023/01/07 10:15:47;;;;;;;0.20;0.10;;;;;;;;;;5040593;28;20092;-85
2023/01/07 10:18:13;;;;;;;0.20;0.10;;;;;;;;;;5031216;28;20041;-84
2023/01/07 10:20:39;;;;;;;0.30;0.20;;;;;;;;;;5040888;28;20683;-86
2023/01/07 10:23:10;;;;;;;0.20;0.10;;;;;;;;;;5046745;28;20143;-87
2023/01/07 10:25:42;;;;;;;0.20;0.10;;;;;;;;;;5025066;28;20093;-87
2023/01/07 10:28:12;;;;;;;0.20;0.10;;;;;;;;;;5051125;28;20510;-85
2023/01/07 10:30:43;;;;;;;0.20;0.10;;;;;;;;;;5062855;28;20361;-86
2023/01/07 10:33:18;;;;;;;0.20;0.10;;;;;;;;;;5039800;28;20525;-86
2023/01/07 10:35:51;;;;;;;0.20;0.10;;;4.30;99.90;;;;;;5029903;28;20114;-89
2023/01/07 10:38:20;;;;;;;0.20;0.10;;;;;;;;;;5045215;28;20032;-89
2023/01/07 10:40:53;;;;;;;0.20;0.20;;;;;;;;;;5059403;28;20553;-86
2023/01/07 10:43:18;;;;;;;;;;;;;;;;;;5018833;28;20042;-86
2023/01/07 10:45:48;;;;;;;0.20;0.10;;;;;;;;;;5020335;28;19920;-85
2023/01/07 10:48:26;;;;;;;0.20;0.10;;;;;;;;;;5033120;28;20039;-85
2023/01/07 10:50:52;;;;;;;0.20;0.20;;;;;;;;;;5064329;28;20036;-86
2023/01/07 10:53:37;;;;;;;0.20;0.10;;;;;;;;;;5045230;28;20032;-86
2023/01/07 10:56:06;;;;;;;0.20;0.10;;;;;;;;;;5024864;28;20048;-87
2023/01/07 10:58:42;;;;;;;0.20;0.10;;;;;;;;;;5032197;28;20036;-86
2023/01/07 11:01:11;;;;;;;0.25;0.25;;;;;;;;;;5020902;28;20120;-86
2023/01/07 11:03:42;;;;;;;0.20;0.10;;;;;;;;;;5048759;28;20032;-86
2023/01/07 11:06:11;;;;;;;0.20;0.10;;;;;;;;;;5048503;28;20036;-83
2023/01/07 11:08:38;;;;;;;0.20;0.10;;;;;;;;;;5044817;28;20036;-86
2023/01/07 11:11:04;;;;;;;0.20;0.10;;;;;;;;;;5026462;28;20036;-85
2023/01/07 11:13:35;;;;;;;0.20;0.10;;;;;;;;;;5034651;28;20071;-85
2023/01/07 11:16:07;;;;;;;0.20;0.10;;;;;;;;;;5014182;28;20032;-88
2023/01/07 11:18:36;;;;;;;0.20;0.10;;;;;;;;;;5026577;28;20268;-85
2023/01/07 11:21:02;;;;;;;0.20;0.10;;;;;;;;;;5022509;28;20066;-86
2023/01/07 11:23:35;;;;;;;0.20;0.10;;;;;;;;;;5051080;28;20394;-88
2023/01/07 11:26:12;;;;;;;0.20;0.10;;;;;;;;;;5019400;28;20098;-85
2023/01/07 11:28:40;;;;;;;0.20;0.10;;;;;;;;;;5027410;28;20036;-85
2023/01/07 11:31:09;;;;;;;0.22;0.22;;;;;;;;;;5046008;28;20122;-84
2023/01/07 11:33:45;;;;;;;0.20;0.10;;;;;;;;;;5038949;28;20439;-88
2023/01/07 11:36:12;;;;;;;0.20;0.10;;;;;;;;;;5025891;28;20494;-87
2023/01/07 11:38:38;;;;;;;0.20;0.10;;;;;;;;;;5058826;28;20041;-88
2023/01/07 11:41:06;;;;;;;0.20;0.10;;;;;;;;;;5044139;28;21307;-86
2023/01/07 11:43:39;;;;;;;0.20;0.10;;;;;;;;;;5041875;28;20032;-88
2023/01/07 11:46:13;;;;;;;0.20;0.17;;;;;;;;;;5040315;28;20040;-84
2023/01/07 11:48:45;;;;;;;0.20;0.10;;;;;;;;;;5036858;28;20044;-86
2023/01/07 11:51:12;;;;;;;0.20;0.10;;;;;;;;;;5041878;28;20036;-87
2023/01/07 11:53:38;;;;;;;0.20;0.10;;;;;;;;;;5044882;28;20453;-88
2023/01/07 11:56:08;;;;;;;0.20;0.10;;;;;;;;;;5026226;28;20594;-84
2023/01/07 11:58:37;;;;;;;0.20;0.10;;;;;;;;;;5018084;28;20454;-87
2023/01/07 12:01:03;;;;;;;0.20;0.10;;;;;;;;;;5064224;28;20101;-87
2023/01/07 12:03:29;;;;;;;0.20;0.10;;;;;;;;;;5036293;28;20470;-87
2023/01/07 12:06:06;;;;;;;0.20;0.10;;;;;;;;;;5012692;28;20041;-87
2023/01/07 12:08:33;;;;;;;0.20;0.10;;;;;;;;;;5060208;28;20120;-88
2023/01/07 12:11:02;;;;;;;0.20;0.10;;;;;;;;;;5043799;28;20036;-87
2023/01/07 12:13:28;;;;;;;0.20;0.10;;;;;;;;;;5042710;28;20684;-86
2023/01/07 12:16:00;;;;;;;0.20;0.10;;;;;;;;;;5046995;22;20429;-80
2023/01/07 12:18:42;;;;;;;0.20;0.10;;;;;;;;;;5056773;28;20051;-79
2023/01/07 12:21:20;;;;;;;0.20;0.10;;;;;;;;;;5049947;28;20040;-81
2023/01/07 12:23:57;;;;;;;0.20;0.10;;;;;;;;;;5038873;28;20134;-83
2023/01/07 12:26:50;;;;;;;0.20;0.10;;;;;;;;;;5037673;28;20050;-79
2023/01/07 12:29:35;;;;;;;0.20;0.10;;;;;;;;;;5026119;28;20056;-80
2023/01/07 12:32:19;;;;;;;0.20;0.10;;;;;;;;;;5075811;28;20039;-83
2023/01/07 12:35:00;;;;;;;0.20;0.10;;;;;;;;;;5058410;28;21266;-81
2023/01/07 12:37:32;;;;;;;0.20;0.10;;;;;;;;;;5077163;28;20497;-84
2023/01/07 12:40:07;;;;;;;0.20;0.10;;;;;;;;;;5055642;28;20067;-83
2023/01/07 12:42:36;;;;;;;0.57;0.20;;;;;;;;;;5054280;28;20032;-83
2023/01/07 12:45:05;;;;;;;0.20;0.10;;;;;;;;;;5051675;28;20923;-82
2023/01/07 12:47:37;;;;;;;0.20;0.10;;;;;;;;;;5061137;28;20051;-79
2023/01/07 12:50:11;;;;;;;0.20;0.20;;;;;;;;;;5056780;28;20052;-79
2023/01/07 12:52:43;;;;;;;0.20;0.10;;;;;;;;;;5058883;28;20118;-81
2023/01/07 12:55:27;;;;;;;0.20;0.10;;;;;;;;;;5063385;28;20502;-83
2023/01/07 12:58:14;;;;;;;0.20;0.10;;;;;;;;;;5062202;28;20040;-82
2023/01/07 13:00:58;;;;;;;0.22;0.13;;;;;;;;;;5048406;28;20403;-86
2023/01/07 13:03:32;;;;;;;0.20;0.10;;;;;;;;;;5045962;28;20047;-81
2023/01/07 13:06:06;;;;;;;0.20;0.10;;;;;;;;;;5069568;28;20055;-83
2023/01/07 13:08:43;;;;;;;0.20;0.10;;;;;;;;;;5085052;28;20059;-83
2023/01/07 13:11:16;;;;;;;0.20;0.10;;;;;;;;;;5080278;28;20042;-82
2023/01/07 13:13:46;;;;;;;0.20;0.10;;;;;;;;;;5082490;28;20044;-82
2023/01/07 13:16:12;;;;;;;0.20;0.10;;;;;;;;;;5045893;28;20066;-82
2023/01/07 13:18:38;;;;;;;0.20;0.10;;;;;;;;;;5050097;28;20502;-80
2023/01/07 13:21:09;;;;;;;0.20;0.10;;;;;;;;;;5060752;28;20126;-82
2023/01/07 13:23:53;;;;;;;0.20;0.10;;;;;;;;;;5055295;28;20040;-82
2023/01/07 13:26:39;;;;;;;0.20;0.10;;;;;;;;;;5049743;28;20044;-82
2023/01/07 13:29:08;;;;;;;0.20;0.10;;;;;;;;;;5046959;28;20104;-82
2023/01/07 13:31:34;;;;;;;0.20;0.20;;;;;;;;;;5085479;28;20044;-81
2023/01/07 13:34:19;;;;;;;0.20;0.10;;;;;;;;;;5067633;28;20039;-83
2023/01/07 13:36:48;;;;;;;0.20;0.10;;;;;;;;;;5063489;28;20060;-82
2023/01/07 13:39:32;;;;;;;0.20;0.10;;;;;;;;;;5065324;28;20036;-82
2023/01/07 13:42:04;;;;;;;0.20;0.10;;;;;;;;;;5053973;28;20040;-82
2023/01/07 13:44:57;;;;;;;0.20;0.10;;;;;;;;;;5050239;28;20050;-83
2023/01/07 13:47:24;;;;;;;0.20;0.10;;;;;;;;;;5022906;28;20068;-83
2023/01/07 13:49:54;;;;;;;0.20;0.20;;;;;;;;;;5063703;28;20383;-81
2023/01/07 13:52:22;;;;;;;0.20;0.10;;;;;;;;;;5049085;28;20036;-83
2023/01/07 13:54:51;;;;;;;0.20;0.10;;;;;;;;;;5066908;28;20035;-85
2023/01/07 13:57:23;;;;;;;0.20;0.10;;;;;;;;;;5078128;28;20036;-82
2023/01/07 13:59:54;;;;;;;0.20;0.10;;;;;;;;;;5062184;28;20036;-84
2023/01/07 14:02:27;;;;;;;0.20;0.10;;;;;;;;;;5067722;28;20470;-82
2023/01/07 14:05:09;;;;;;;0.20;0.10;;;;;;;;;;5051464;28;20129;-82
2023/01/07 14:07:48;;;;;;;0.20;0.10;;;;;;;;;;5046488;28;21058;-82
2023/01/07 14:10:31;;;;;;;0.20;0.10;;;;;;;;;;5068721;28;20068;-82
2023/01/07 14:12:57;;;;;;;;;;;;;;;;;;5069881;28;20100;-83
2023/01/07 14:15:40;;;;;;;0.20;0.10;;;;;;;;;;5045113;28;19999;-83
2023/01/07 14:18:13;;;;;;;0.20;0.10;;;;;;;;;;5059394;28;20141;-84
2023/01/07 14:20:47;;;;;;;0.20;0.10;;;;;;;;;;5063194;28;20064;-83
2023/01/07 14:23:24;;;;;;;0.20;0.10;;;;;;;;;;5085531;28;20040;-81
2023/01/07 14:25:57;;;;;;;0.20;0.10;;;;;;;;;;5047211;28;20048;-83
2023/01/07 14:28:39;;;;;;;0.20;0.10;;;;;;;;;;5077782;28;20409;-86
2023/01/07 14:31:05;;;;;;;0.20;0.10;;;;;;;;;;5082755;28;20036;-82
2023/01/07 14:33:46;;;;;;;0.68;0.38;;;;;;;;;;5042581;28;20052;-82
2023/01/07 14:36:12;;;;;;;0.20;0.10;;;;;;;;;;5047487;28;20068;-83
2023/01/07 14:38:40;;;;;;;0.20;0.10;;;;;;;;;;5069723;28;20036;-82
2023/01/07 14:41:07;;;;;;;0.20;0.10;;;;;;;;;;5067702;28;20043;-81
2023/01/07 14:43:42;;;;;;;0.20;0.10;;;;;;;;;;5062155;28;20052;-82
2023/01/07 14:46:08;;;;;;;0.20;0.10;;;;;;;;;;5061454;28;20059;-83
2023/01/07 14:48:36;;;;;;;0.20;0.10;;;;;;;;;;5064893;28;20032;-82
2023/01/07 14:51:26;;;;;;;0.20;0.10;;;;;;;;;;5043376;28;20036;-81
2023/01/07 14:54:21;;;;;;;0.20;0.10;;;;;;;;;;5041312;28;20067;-82
2023/01/07 14:56:47;;;;;;;0.20;0.10;;;;;;;;;;5037777;28;20054;-80
2023/01/07 14:59:32;;;;;;;0.20;0.10;;;;;;;;;;5051343;28;20032;-81
2023/01/07 15:02:28;;;;;;;0.20;0.10;;;;;;;;;;5068536;28;20043;-81